Station Historical Data
Daily Summary for July 20, 2012 Units:  Metric    English   Both
« Previous Day
Next Day »
Daily Weekly Monthly Yearly Custom
  High: Low: Average:
Temperature: 31.5 °C 20.8 °C 26.3 °C
Dew Point: 25.9 °C 19.7 °C 23.3 °C
Humidity: 93% 70% 84%
Wind Speed: 19.3km/h 0km/h 6.1km/h
Wind Gust: 27.4km/h - -
Wind- - South
Pressure: 1014.1 hPa 1010.4 hPa -
Precipitation: 9.65 mm    
Historical Graphs
 
 
Tabular Data for July 20, 2012
Time Temperature Dew Point Pressure Wind Wind Speed Wind Gust Humidity Rainfall Rate (Hourly) Conditions
00:00 25.6 °C 23.8 °C 1012.4 hPa SE 1.6 km/h 9.7 km/h 90% 0 mm
00:01 25.6 °C 23.8 °C 1012.4 hPa SSE 3.2 km/h 6.4 km/h 90% 0 mm
00:06 25.6 °C 23.8 °C 1012.4 hPa South 1.6 km/h 4.8 km/h 90% 0 mm
00:11 25.5 °C 23.9 °C 1012.4 hPa SE 4.8 km/h 6.4 km/h 91% 0 mm
00:16 25.5 °C 23.9 °C 1012.4 hPa South 4.8 km/h 8 km/h 91% 0 mm
00:21 25.6 °C 24 °C 1012.4 hPa South 6.4 km/h 9.7 km/h 91% 0 mm
00:26 25.6 °C 24 °C 1012.4 hPa SSE 6.4 km/h 6.4 km/h 91% 0 mm
00:31 25.5 °C 23.9 °C 1012.4 hPa SW 3.2 km/h 6.4 km/h 91% 0 mm
00:36 25.5 °C 23.9 °C 1012.8 hPa SSW 3.2 km/h 4.8 km/h 91% 0 mm
00:41 25.4 °C 23.9 °C 1012.8 hPa South 1.6 km/h 4.8 km/h 91% 0 mm
00:46 25.4 °C 23.8 °C 1012.8 hPa SSW 4.8 km/h 4.8 km/h 91% 0 mm
00:51 25.3 °C 23.8 °C 1012.8 hPa South 1.6 km/h 6.4 km/h 91% 0 mm
00:56 25.3 °C 23.9 °C 1012.8 hPa SSW 3.2 km/h 4.8 km/h 92% 0 mm
01:01 25.3 °C 23.9 °C 1013.1 hPa Calm   3.2 km/h 92% 0 mm
01:06 25.2 °C 23.8 °C 1013.1 hPa SSW 3.2 km/h 4.8 km/h 92% 0 mm
01:11 25.2 °C 23.8 °C 1013.1 hPa SSE 3.2 km/h 6.4 km/h 92% 0 mm
01:16 25.2 °C 23.8 °C 1012.8 hPa SSE 3.2 km/h 4.8 km/h 92% 0 mm
01:21 25.2 °C 23.8 °C 1012.8 hPa SW 4.8 km/h 4.8 km/h 92% 0 mm
01:26 25.1 °C 23.7 °C 1012.8 hPa WSW 6.4 km/h 6.4 km/h 92% 0 mm
01:31 25.1 °C 23.7 °C 1012.8 hPa SW 1.6 km/h 4.8 km/h 92% 0 mm
01:36 25.1 °C 23.7 °C 1012.4 hPa South 3.2 km/h 6.4 km/h 92% 0 mm
01:41 25.1 °C 23.7 °C 1012.4 hPa SSW 4.8 km/h 8 km/h 92% 0 mm
01:46 25 °C 23.4 °C 1012.8 hPa SW 3.2 km/h 6.4 km/h 91% 0 mm
01:51 25 °C 23.6 °C 1012.8 hPa South 4.8 km/h 4.8 km/h 92% 0 mm
01:57 25 °C 23.6 °C 1012.8 hPa SW 3.2 km/h 4.8 km/h 92% 0 mm
02:02 24.9 °C 23.6 °C 1012.8 hPa Calm   3.2 km/h 92% 0 mm
02:07 24.9 °C 23.5 °C 1013.1 hPa WSW 1.6 km/h 3.2 km/h 92% 0 mm
02:12 24.8 °C 23.4 °C 1013.1 hPa West 1.6 km/h 1.6 km/h 92% 0 mm
02:17 24.8 °C 23.3 °C 1012.8 hPa WSW 3.2 km/h 6.4 km/h 91% 0 mm
02:22 24.8 °C 23.4 °C 1012.8 hPa WSW 3.2 km/h 3.2 km/h 92% 0 mm
02:27 24.7 °C 23.2 °C 1012.8 hPa SW 3.2 km/h 3.2 km/h 91% 0 mm
02:32 24.7 °C 23.3 °C 1012.8 hPa WSW 3.2 km/h 6.4 km/h 92% 0 mm
02:37 24.7 °C 23.2 °C 1012.8 hPa SW 6.4 km/h 8 km/h 91% 0 mm
02:42 24.7 °C 23.3 °C 1012.8 hPa WSW 3.2 km/h 6.4 km/h 92% 0 mm
02:47 24.6 °C 23.2 °C 1012.4 hPa SSW 4.8 km/h 8 km/h 92% 0 mm
02:52 24.5 °C 23.1 °C 1012.4 hPa SSW 4.8 km/h 8 km/h 92% 0 mm
02:57 24.4 °C 23.1 °C 1012.1 hPa SW 6.4 km/h 8 km/h 92% 0 mm
03:02 24.3 °C 22.9 °C 1012.1 hPa SW 3.2 km/h 8 km/h 92% 0 mm
03:07 24.3 °C 22.9 °C 1012.1 hPa SW 8 km/h 8 km/h 92% 0 mm
03:12 24.2 °C 22.8 °C 1012.1 hPa WSW 8 km/h 11.3 km/h 92% 0 mm
03:17 24.2 °C 22.8 °C 1012.1 hPa SW 6.4 km/h 8 km/h 92% 0 mm
03:22 24.2 °C 22.8 °C 1012.1 hPa WSW 8 km/h 9.7 km/h 92% 0 mm
03:27 24.2 °C 22.8 °C 1012.4 hPa WSW 6.4 km/h 8 km/h 92% 0 mm
03:32 24.2 °C 22.8 °C 1012.4 hPa WSW 1.6 km/h 8 km/h 92% 0 mm
03:38 24.1 °C 22.7 °C 1012.4 hPa WSW 4.8 km/h 6.4 km/h 92% 0 mm
03:43 24.1 °C 22.7 °C 1012.4 hPa SW 1.6 km/h 4.8 km/h 92% 0 mm
03:48 24 °C 22.6 °C 1012.4 hPa SW 1.6 km/h 6.4 km/h 92% 0 mm
03:53 24 °C 22.6 °C 1012.8 hPa WSW 3.2 km/h 6.4 km/h 92% 0 mm
03:58 24 °C 22.6 °C 1012.8 hPa WSW 1.6 km/h 4.8 km/h 92% 0 mm
04:03 24 °C 22.6 °C 1012.8 hPa Calm   1.6 km/h 92% 0 mm
04:08 23.9 °C 22.4 °C 1013.1 hPa WSW 1.6 km/h 1.6 km/h 91% 0 mm
04:13 24 °C 22.4 °C 1013.1 hPa Calm   1.6 km/h 91% 0 mm
04:18 24 °C 22.4 °C 1013.1 hPa SW 4.8 km/h 6.4 km/h 91% 0 mm
04:23 24.1 °C 22.5 °C 1013.1 hPa WSW 1.6 km/h 3.2 km/h 91% 0 mm
04:28 24.1 °C 22.5 °C 1013.8 hPa North 4.8 km/h 14.5 km/h 91% 0 mm
04:33 24.1 °C 22.6 °C 1013.8 hPa NNE 14.5 km/h 19.3 km/h 91% 0 mm
04:38 24.2 °C 22.6 °C 1013.4 hPa NNE 4.8 km/h 8 km/h 91% 0 mm
04:43 24.3 °C 22.7 °C 1013.8 hPa ENE 4.8 km/h 12.9 km/h 91% 0 mm
04:48 24.3 °C 22.1 °C 1013.8 hPa NNE 16.1 km/h 22.5 km/h 87% 0 mm
04:53 24 °C 21.5 °C 1014.1 hPa NE 6.4 km/h 12.9 km/h 86% 0 mm
04:58 23.8 °C 21.1 °C 1014.1 hPa NE 8 km/h 19.3 km/h 85% 0 mm
05:03 23.4 °C 20.8 °C 1014.1 hPa NNE 16.1 km/h 17.7 km/h 85% 0 mm
05:08 23.3 °C 20.8 °C 1013.8 hPa ENE 3.2 km/h 11.3 km/h 86% 0 mm
05:13 23.1 °C 20.6 °C 1013.8 hPa NE 8 km/h 16.1 km/h 86% 0 mm
05:18 22.9 °C 20.5 °C 1014.1 hPa NE 4.8 km/h 16.1 km/h 86% 0 mm
05:23 22.8 °C 20.6 °C 1013.8 hPa East 11.3 km/h 14.5 km/h 87% 0 mm
05:28 22.7 °C 20.4 °C 1013.8 hPa NE 6.4 km/h 14.5 km/h 87% 0 mm
05:33 22.6 °C 20.3 °C 1013.8 hPa ESE 3.2 km/h 12.9 km/h 87% 0 mm
05:38 22.5 °C 20.4 °C 1013.8 hPa ESE 11.3 km/h 12.9 km/h 88% 0 mm
05:43 22.4 °C 20.4 °C 1013.8 hPa NE 11.3 km/h 12.9 km/h 88% 0 mm
05:48 22.4 °C 20.3 °C 1013.8 hPa NE 8 km/h 12.9 km/h 88% 0 mm
05:53 22.3 °C 20.4 °C 1014.1 hPa NE 9.7 km/h 11.3 km/h 89% 0 mm
05:58 22.3 °C 20.4 °C 1014.1 hPa ENE 4.8 km/h 11.3 km/h 89% 0 mm
06:03 22.3 °C 20.4 °C 1014.1 hPa ENE 3.2 km/h 4.8 km/h 89% 0 mm
06:08 22.3 °C 20.4 °C 1014.1 hPa NE 8 km/h 11.3 km/h 89% 0 mm
06:13 22.2 °C 20.4 °C 1014.1 hPa ENE 6.4 km/h 11.3 km/h 90% 0 mm
06:18 21.9 °C 20.4 °C 1013.8 hPa East 11.3 km/h 12.9 km/h 91% 21.84 mm
06:23 21.6 °C 20.1 °C 1013.8 hPa NNE 3.2 km/h 14.5 km/h 91% 29.72 mm
06:28 21.3 °C 20 °C 1013.8 hPa East 1.6 km/h 6.4 km/h 92% 3.56 mm
06:33 21.2 °C 19.8 °C 1013.8 hPa NE 4.8 km/h 6.4 km/h 92% 1.52 mm
06:38 21.1 °C 19.8 °C 1013.4 hPa ENE 8 km/h 8 km/h 92% 1.02 mm
06:43 21.1 °C 19.9 °C 1013.4 hPa East 3.2 km/h 6.4 km/h 93% 1.02 mm
06:48 21 °C 19.8 °C 1013.4 hPa ESE 6.4 km/h 8 km/h 93% 1.02 mm
06:53 20.9 °C 19.8 °C 1013.4 hPa SE 4.8 km/h 8 km/h 93% 1.27 mm
06:58 20.9 °C 19.8 °C 1013.4 hPa SE 3.2 km/h 6.4 km/h 93% 1.27 mm
07:04 20.9 °C 19.8 °C 1013.4 hPa SE 1.6 km/h 1.6 km/h 93% 1.27 mm
07:09 20.9 °C 19.8 °C 1013.4 hPa ESE 3.2 km/h 4.8 km/h 93% 12.7 mm
07:14 20.9 °C 19.8 °C 1013.8 hPa Calm   4.8 km/h 93% 3.81 mm
07:19 20.9 °C 19.7 °C 1013.8 hPa North 3.2 km/h 4.8 km/h 93% 3.56 mm
07:24 20.9 °C 19.7 °C 1013.8 hPa East 3.2 km/h 4.8 km/h 93% 3.56 mm
07:29 20.9 °C 19.7 °C 1013.8 hPa NE 1.6 km/h 4.8 km/h 93% 8.89 mm
07:34 20.8 °C 19.7 °C 1013.8 hPa Calm   4.8 km/h 93% 3.05 mm
07:39 20.8 °C 19.7 °C 1013.8 hPa SSE 4.8 km/h 8 km/h 93% 1.52 mm
07:44 20.8 °C 19.7 °C 1013.4 hPa ESE 11.3 km/h 11.3 km/h 93% 9.65 mm
07:49 20.8 °C 19.7 °C 1013.4 hPa East 9.7 km/h 14.5 km/h 93% 2.29 mm
07:54 20.9 °C 19.7 °C 1013.4 hPa ESE 9.7 km/h 17.7 km/h 93% 1.27 mm
07:59 20.9 °C 19.8 °C 1013.4 hPa SE 6.4 km/h 11.3 km/h 93% 1.02 mm
08:04 21 °C 19.8 °C 1013.4 hPa ESE 8 km/h 14.5 km/h 93% 0 mm
08:09 21.1 °C 19.9 °C 1013.4 hPa ESE 8 km/h 9.7 km/h 93% 0 mm
08:14 21.1 °C 19.9 °C 1013.4 hPa SE 6.4 km/h 8 km/h 93% 0 mm
08:19 21.2 °C 20 °C 1013.4 hPa SE 6.4 km/h 11.3 km/h 93% 0 mm
08:24 21.2 °C 20.1 °C 1013.4 hPa SE 6.4 km/h 11.3 km/h 93% 0 mm
08:29 21.3 °C 20.1 °C 1013.4 hPa East 8 km/h 9.7 km/h 93% 0 mm
08:34 21.3 °C 20 °C 1013.4 hPa ESE 4.8 km/h 8 km/h 92% 0 mm
08:39 21.4 °C 20.2 °C 1013.4 hPa ESE 11.3 km/h 12.9 km/h 93% 0 mm
08:44 21.4 °C 20.2 °C 1013.8 hPa SE 4.8 km/h 11.3 km/h 93% 0 mm
08:49 21.4 °C 20.3 °C 1013.8 hPa ESE 8 km/h 9.7 km/h 93% 0 mm
08:54 21.5 °C 20.3 °C 1013.4 hPa SSE 9.7 km/h 12.9 km/h 93% 0 mm
08:59 21.6 °C 20.2 °C 1013.4 hPa SSE 11.3 km/h 14.5 km/h 92% 0 mm
09:04 21.7 °C 20.4 °C 1013.4 hPa SE 12.9 km/h 17.7 km/h 92% 0 mm
09:09 22 °C 20.7 °C 1013.1 hPa SE 11.3 km/h 17.7 km/h 92% 0 mm
09:14 22.3 °C 20.9 °C 1013.4 hPa SE 11.3 km/h 17.7 km/h 92% 0 mm
09:19 22.6 °C 21.2 °C 1013.1 hPa SSE 9.7 km/h 20.9 km/h 92% 0 mm
09:24 22.7 °C 21.3 °C 1013.1 hPa SE 17.7 km/h 24.1 km/h 92% 0 mm
09:29 23.1 °C 21.7 °C 1013.1 hPa SE 9.7 km/h 16.1 km/h 92% 0 mm
09:34 23.3 °C 21.9 °C 1013.1 hPa SSE 16.1 km/h 19.3 km/h 92% 0 mm
09:39 23.6 °C 21.8 °C 1012.8 hPa SE 17.7 km/h 27.4 km/h 90% 0 mm
09:44 23.9 °C 22.3 °C 1012.8 hPa SSE 12.9 km/h 16.1 km/h 91% 0 mm
09:49 24.2 °C 22.6 °C 1013.1 hPa SE 12.9 km/h 16.1 km/h 91% 0 mm
09:54 24.4 °C 22.4 °C 1013.1 hPa SE 17.7 km/h 17.7 km/h 89% 0 mm
09:59 24.5 °C 22.4 °C 1012.8 hPa SSE 9.7 km/h 17.7 km/h 88% 0 mm
10:04 24.7 °C 22.6 °C 1012.8 hPa SSE 8 km/h 12.9 km/h 88% 0 mm
10:09 24.9 °C 22.6 °C 1012.8 hPa SE 9.7 km/h 17.7 km/h 87% 0 mm
10:15 25.1 °C 22.6 °C 1012.8 hPa SSE 3.2 km/h 11.3 km/h 86% 0 mm
10:20 25.2 °C 22.7 °C 1012.8 hPa South 4.8 km/h 14.5 km/h 86% 0 mm
10:25 25.3 °C 22.8 °C 1012.8 hPa South 6.4 km/h 12.9 km/h 86% 0 mm
10:30 25.4 °C 22.3 °C 1013.1 hPa SSE 12.9 km/h 17.7 km/h 83% 0 mm
10:35 25.4 °C 22.5 °C 1013.1 hPa SW 11.3 km/h 16.1 km/h 84% 0 mm
10:40 25.3 °C 22.4 °C 1012.8 hPa SE 19.3 km/h 19.3 km/h 84% 0 mm
10:45 25.4 °C 22.3 °C 1013.1 hPa South 12.9 km/h 14.5 km/h 83% 0 mm
10:50 25.5 °C 22.4 °C 1013.1 hPa South 6.4 km/h 16.1 km/h 83% 0 mm
10:55 25.7 °C 22.6 °C 1013.1 hPa SE 8 km/h 14.5 km/h 83% 0 mm
11:00 25.8 °C 22.7 °C 1013.1 hPa South 8 km/h 16.1 km/h 83% 0 mm
11:05 25.9 °C 23 °C 1013.1 hPa SSE 14.5 km/h 19.3 km/h 84% 0 mm
11:10 25.9 °C 23 °C 1013.1 hPa SSW 3.2 km/h 16.1 km/h 84% 0 mm
11:15 26.1 °C 22.9 °C 1012.8 hPa SSE 4.8 km/h 11.3 km/h 83% 0 mm
11:20 26.2 °C 22.9 °C 1012.8 hPa SW 4.8 km/h 11.3 km/h 82% 0 mm
11:25 26.4 °C 23.1 °C 1012.8 hPa SSW 4.8 km/h 17.7 km/h 82% 0 mm
11:30 26.6 °C 22.8 °C 1012.8 hPa South 8 km/h 14.5 km/h 80% 0 mm
11:35 26.7 °C 22.8 °C 1013.1 hPa SSE 11.3 km/h 19.3 km/h 79% 0 mm
11:40 26.8 °C 22.4 °C 1013.1 hPa SSW 6.4 km/h 17.7 km/h 77% 0 mm
11:45 26.9 °C 22.9 °C 1012.8 hPa SW 9.7 km/h 14.5 km/h 79% 0 mm
11:50 27.2 °C 23 °C 1013.1 hPa SSE 6.4 km/h 16.1 km/h 78% 0 mm
11:55 27.2 °C 22.8 °C 1012.8 hPa SSW 11.3 km/h 17.7 km/h 77% 0 mm
12:00 27.3 °C 23.4 °C 1012.8 hPa SW 9.7 km/h 12.9 km/h 79% 0 mm
12:05 27.5 °C 23.3 °C 1012.8 hPa SSW 4.8 km/h 16.1 km/h 78% 0 mm
12:10 27.6 °C 23.8 °C 1012.8 hPa South 9.7 km/h 11.3 km/h 80% 0 mm
12:15 27.7 °C 23.7 °C 1012.8 hPa SSW 11.3 km/h 17.7 km/h 79% 0 mm
12:20 27.5 °C 23.3 °C 1012.8 hPa South 9.7 km/h 19.3 km/h 78% 0 mm
12:25 27.4 °C 23.5 °C 1012.8 hPa SSE 11.3 km/h 17.7 km/h 79% 0 mm
12:30 27.6 °C 24.1 °C 1012.8 hPa SW 9.7 km/h 17.7 km/h 81% 0 mm
12:35 27.6 °C 23.7 °C 1012.8 hPa WSW 11.3 km/h 20.9 km/h 79% 0 mm
12:40 27.9 °C 23.7 °C 1012.8 hPa South 11.3 km/h 19.3 km/h 78% 0 mm
12:45 28 °C 23.8 °C 1012.8 hPa SSW 8 km/h 16.1 km/h 78% 0 mm
12:50 28.2 °C 23.8 °C 1012.8 hPa SW 8 km/h 14.5 km/h 77% 0 mm
12:55 28.3 °C 23.9 °C 1012.8 hPa SE 8 km/h 11.3 km/h 77% 0 mm
13:00 28.6 °C 24.3 °C 1012.4 hPa SSW 4.8 km/h 19.3 km/h 78% 0 mm
13:05 28.7 °C 24.4 °C 1012.4 hPa South 8 km/h 14.5 km/h 78% 0 mm
13:10 28.8 °C 24.3 °C 1012.4 hPa WSW 14.5 km/h 16.1 km/h 77% 0 mm
13:15 28.8 °C 24.1 °C 1012.4 hPa SSW 4.8 km/h 14.5 km/h 76% 0 mm
13:20 29.1 °C 24.4 °C 1012.4 hPa South 14.5 km/h 14.5 km/h 76% 0 mm
13:25 29.1 °C 24.2 °C 1012.4 hPa SE 6.4 km/h 12.9 km/h 75% 0 mm
13:30 29.2 °C 24.3 °C 1012.4 hPa SSW 11.3 km/h 16.1 km/h 75% 0 mm
13:35 28.9 °C 24.7 °C 1012.4 hPa South 4.8 km/h 11.3 km/h 78% 0 mm
13:40 29.2 °C 24.1 °C 1012.4 hPa WSW 8 km/h 14.5 km/h 74% 0 mm
13:45 29.3 °C 24.7 °C 1012.4 hPa SW 8 km/h 16.1 km/h 76% 0 mm
13:50 29.6 °C 24.3 °C 1012.4 hPa South 9.7 km/h 14.5 km/h 73% 0 mm
13:56 29.6 °C 24.5 °C 1012.4 hPa SSE 16.1 km/h 16.1 km/h 74% 0 mm
14:01 29.6 °C 24.5 °C 1012.1 hPa SE 8 km/h 11.3 km/h 74% 0 mm
14:06 29.8 °C 24.5 °C 1012.1 hPa SW 3.2 km/h 11.3 km/h 73% 0 mm
14:11 30 °C 24.9 °C 1012.1 hPa SE 4.8 km/h 8 km/h 74% 0 mm
14:16 30.1 °C 25.4 °C 1012.1 hPa SSW 1.6 km/h 8 km/h 76% 0 mm
14:21 30.2 °C 25.3 °C 1012.1 hPa SSE 6.4 km/h 11.3 km/h 75% 0 mm
14:26 30.3 °C 25.6 °C 1012.1 hPa SSW 6.4 km/h 9.7 km/h 76% 0 mm
14:31 30.2 °C 24.6 °C 1012.1 hPa South 4.8 km/h 11.3 km/h 72% 0 mm
14:36 30.2 °C 24.8 °C 1012.1 hPa SW 6.4 km/h 19.3 km/h 73% 0 mm
14:41 30.2 °C 25 °C 1011.7 hPa ESE 4.8 km/h 11.3 km/h 74% 0 mm
14:46 30.2 °C 24.6 °C 1012.1 hPa SW 8 km/h 16.1 km/h 72% 0 mm
14:51 30.4 °C 25.1 °C 1011.7 hPa South 12.9 km/h 12.9 km/h 73% 0 mm
14:56 30.4 °C 24.8 °C 1011.7 hPa SSE 4.8 km/h 12.9 km/h 72% 0 mm
15:01 30.7 °C 25.3 °C 1011.7 hPa SW 6.4 km/h 12.9 km/h 73% 0 mm
15:06 30.9 °C 25.7 °C 1011.7 hPa SW 4.8 km/h 4.8 km/h 74% 0 mm
15:12 30.8 °C 25.2 °C 1011.7 hPa SSW 9.7 km/h 11.3 km/h 72% 0 mm
15:17 30.7 °C 25.5 °C 1011.7 hPa WNW 4.8 km/h 9.7 km/h 74% 0 mm
15:22 30.5 °C 25.1 °C 1011.7 hPa SSW 6.4 km/h 9.7 km/h 73% 0 mm
15:27 30.6 °C 25.2 °C 1011.7 hPa SW 4.8 km/h 8 km/h 73% 0 mm
15:32 30.8 °C 25.2 °C 1011.7 hPa West 4.8 km/h 12.9 km/h 72% 0 mm
15:37 30.8 °C 25.2 °C 1011.7 hPa West 3.2 km/h 8 km/h 72% 0 mm
15:42 30.7 °C 25.1 °C 1011.7 hPa WSW 6.4 km/h 11.3 km/h 72% 0 mm
15:47 30.8 °C 25.2 °C 1011.7 hPa WSW 6.4 km/h 9.7 km/h 72% 0 mm
15:52 30.9 °C 25.3 °C 1011.7 hPa SSW 6.4 km/h 8 km/h 72% 0 mm
15:57 30.6 °C 25 °C 1011.7 hPa WSW 4.8 km/h 8 km/h 72% 0 mm
16:02 30.4 °C 25.1 °C 1011.7 hPa SE 3.2 km/h 8 km/h 73% 0 mm
16:07 30.5 °C 25.1 °C 1011.7 hPa WSW 6.4 km/h 9.7 km/h 73% 0 mm
16:12 30.3 °C 25.1 °C 1011.7 hPa SW 11.3 km/h 11.3 km/h 74% 0 mm
16:17 30.6 °C 25.2 °C 1011.7 hPa West 4.8 km/h 9.7 km/h 73% 0 mm
16:22 30.5 °C 25.3 °C 1011.7 hPa West 6.4 km/h 9.7 km/h 74% 0 mm
16:27 30.4 °C 25.4 °C 1011.7 hPa SW 8 km/h 9.7 km/h 75% 0 mm
16:32 30.3 °C 25.1 °C 1011.4 hPa SW 1.6 km/h 11.3 km/h 74% 0 mm
16:37 30.3 °C 25.1 °C 1011.4 hPa SSE 1.6 km/h 4.8 km/h 74% 0 mm
16:42 30.3 °C 25.2 °C 1011.4 hPa WSW 4.8 km/h 11.3 km/h 74% 0 mm
16:47 30.7 °C 25.3 °C 1011.4 hPa West 6.4 km/h 16.1 km/h 73% 0 mm
16:52 30.7 °C 25.3 °C 1011.4 hPa WSW 8 km/h 11.3 km/h 73% 0 mm
16:57 30.7 °C 25.1 °C 1011.4 hPa South 1.6 km/h 11.3 km/h 72% 0 mm
17:02 30.8 °C 25.2 °C 1011.4 hPa SSW 12.9 km/h 17.7 km/h 72% 0 mm
17:07 31.1 °C 25.7 °C 1011.4 hPa SW 8 km/h 12.9 km/h 73% 0 mm
17:12 31.2 °C 25.3 °C 1011.4 hPa SW 4.8 km/h 9.7 km/h 71% 0 mm
17:17 31.1 °C 25.4 °C 1011.4 hPa SW 6.4 km/h 12.9 km/h 72% 0 mm
17:22 31 °C 25.6 °C 1011.4 hPa SE 3.2 km/h 8 km/h 73% 0 mm
17:27 31.3 °C 25.6 °C 1011.1 hPa SSE 6.4 km/h 11.3 km/h 72% 0 mm
17:32 31.3 °C 25.2 °C 1011.1 hPa South 8 km/h 11.3 km/h 70% 0 mm
17:37 31.4 °C 25.5 °C 1011.1 hPa WSW 8 km/h 14.5 km/h 71% 0 mm
17:42 31.3 °C 25.4 °C 1011.1 hPa South 8 km/h 11.3 km/h 71% 0 mm
17:48 31.3 °C 25.4 °C 1011.1 hPa SSW 4.8 km/h 9.7 km/h 71% 0 mm
17:53 31.4 °C 25.6 °C 1011.1 hPa WSW 8 km/h 9.7 km/h 71% 0 mm
17:58 31.4 °C 25.3 °C 1011.1 hPa SW 4.8 km/h 9.7 km/h 70% 0 mm
18:03 31.5 °C 25.6 °C 1011.1 hPa SW 9.7 km/h 11.3 km/h 71% 0 mm
18:08 31.2 °C 25.3 °C 1011.1 hPa SW 4.8 km/h 11.3 km/h 71% 0 mm
18:13 31.2 °C 25.8 °C 1011.1 hPa SW 11.3 km/h 14.5 km/h 73% 0 mm
18:18 31.2 °C 25.5 °C 1011.1 hPa SW 8 km/h 12.9 km/h 72% 0 mm
18:23 31.2 °C 25.6 °C 1011.1 hPa SW 12.9 km/h 12.9 km/h 72% 0 mm
18:28 31 °C 25.6 °C 1010.7 hPa WSW 8 km/h 12.9 km/h 73% 0 mm
18:33 30.8 °C 25.7 °C 1010.7 hPa SW 8 km/h 16.1 km/h 74% 0 mm
18:38 30.6 °C 25.7 °C 1010.7 hPa West 6.4 km/h 12.9 km/h 75% 0 mm
18:43 30.6 °C 25.8 °C 1010.7 hPa SW 8 km/h 12.9 km/h 76% 0 mm
18:48 30.5 °C 25.8 °C 1010.7 hPa SSW 11.3 km/h 16.1 km/h 76% 0 mm
18:53 30.3 °C 25.6 °C 1010.7 hPa SW 6.4 km/h 14.5 km/h 76% 0 mm
18:58 30.2 °C 25.9 °C 1010.7 hPa WSW 8 km/h 12.9 km/h 78% 0 mm
19:03 30.1 °C 25.4 °C 1010.4 hPa SW 14.5 km/h 16.1 km/h 76% 0 mm
19:08 30 °C 25.5 °C 1010.7 hPa SW 11.3 km/h 17.7 km/h 77% 0 mm
19:13 29.9 °C 25.7 °C 1010.4 hPa SW 8 km/h 14.5 km/h 78% 0 mm
19:19 30.1 °C 25.8 °C 1010.4 hPa SSW 6.4 km/h 12.9 km/h 78% 0 mm
19:24 29.9 °C 25.5 °C 1010.7 hPa SSW 6.4 km/h 11.3 km/h 77% 0 mm
19:29 30 °C 25.7 °C 1010.7 hPa SSW 3.2 km/h 11.3 km/h 78% 0 mm
19:34 29.9 °C 25.7 °C 1010.7 hPa South 3.2 km/h 11.3 km/h 78% 0 mm
19:39 29.8 °C 25.4 °C 1010.7 hPa SSW 8 km/h 11.3 km/h 77% 0 mm
19:44 29.7 °C 25.2 °C 1010.7 hPa South 6.4 km/h 9.7 km/h 77% 0 mm
19:49 29.6 °C 25.4 °C 1011.1 hPa SSW 8 km/h 11.3 km/h 78% 0 mm
19:54 29.5 °C 25.3 °C 1011.1 hPa WSW 8 km/h 14.5 km/h 78% 0 mm
19:59 29.4 °C 25.2 °C 1011.1 hPa SW 3.2 km/h 8 km/h 78% 0 mm
20:04 29.3 °C 25.1 °C 1011.1 hPa SW 12.9 km/h 12.9 km/h 78% 0 mm
20:09 29 °C 25.2 °C 1011.1 hPa SSW 4.8 km/h 6.4 km/h 80% 0 mm
20:14 28.8 °C 25 °C 1011.4 hPa SSW 4.8 km/h 11.3 km/h 80% 0 mm
20:19 28.4 °C 24.9 °C 1011.4 hPa SW 6.4 km/h 6.4 km/h 81% 0 mm
20:24 28.2 °C 24.7 °C 1011.7 hPa SW 8 km/h 9.7 km/h 81% 0 mm
20:29 28 °C 24.7 °C 1011.4 hPa SW 6.4 km/h 8 km/h 82% 0 mm
20:34 27.8 °C 24.6 °C 1011.7 hPa SSW 4.8 km/h 6.4 km/h 83% 0 mm
20:39 27.6 °C 24.7 °C 1011.7 hPa SW 3.2 km/h 6.4 km/h 84% 0 mm
20:44 27.5 °C 24.6 °C 1011.7 hPa SSE 3.2 km/h 3.2 km/h 84% 0 mm
20:49 27.3 °C 24.6 °C 1011.7 hPa SE 3.2 km/h 4.8 km/h 85% 0 mm
20:54 27.2 °C 24.5 °C 1011.7 hPa SSW 3.2 km/h 3.2 km/h 85% 0 mm
20:59 27.1 °C 24.4 °C 1011.7 hPa SSW 1.6 km/h 4.8 km/h 85% 0 mm
21:05 27 °C 24.4 °C 1011.7 hPa SSW 3.2 km/h 4.8 km/h 86% 0 mm
21:10 26.8 °C 24.2 °C 1011.7 hPa SSW 1.6 km/h 3.2 km/h 86% 0 mm
21:15 26.7 °C 24.3 °C 1011.7 hPa Calm   1.6 km/h 87% 0 mm
21:20 26.6 °C 24.2 °C 1011.7 hPa SSW 4.8 km/h 4.8 km/h 87% 0 mm
21:25 26.6 °C 24.2 °C 1011.7 hPa SW 1.6 km/h 4.8 km/h 87% 0 mm
21:30 26.4 °C 24.3 °C 1011.7 hPa Calm   1.6 km/h 88% 0 mm
21:35 26.3 °C 24.2 °C 1012.1 hPa SSE 1.6 km/h 1.6 km/h 88% 0 mm
21:40 26.2 °C 24.1 °C 1012.1 hPa SSE 1.6 km/h 3.2 km/h 88% 0 mm
21:45 26.2 °C 24.2 °C 1012.1 hPa Calm   3.2 km/h 89% 0 mm
21:50 26.1 °C 24.1 °C 1012.1 hPa SSE 1.6 km/h 1.6 km/h 89% 0 mm
21:55 26 °C 24.1 °C 1012.1 hPa SE 1.6 km/h 4.8 km/h 89% 0 mm
22:00 25.9 °C 24 °C 1012.4 hPa Calm   1.6 km/h 89% 0 mm
22:05 25.8 °C 23.8 °C 1012.4 hPa Calm     89% 0 mm
22:10 25.7 °C 23.9 °C 1012.4 hPa Calm     90% 0 mm
22:15 25.6 °C 23.8 °C 1012.4 hPa Calm   1.6 km/h 90% 0 mm
22:20 25.6 °C 23.8 °C 1012.4 hPa Calm     90% 0 mm
22:25 25.4 °C 23.7 °C 1012.4 hPa Calm     90% 0 mm
22:30 25.4 °C 23.7 °C 1012.4 hPa SSE 3.2 km/h 3.2 km/h 90% 0 mm
22:35 25.6 °C 23.8 °C 1012.4 hPa SSW 1.6 km/h 3.2 km/h 90% 0 mm
22:40 25.6 °C 23.8 °C 1012.4 hPa SSE 1.6 km/h 3.2 km/h 90% 0 mm
22:45 25.6 °C 23.8 °C 1012.4 hPa SW 6.4 km/h 6.4 km/h 90% 0 mm
22:50 25.7 °C 23.9 °C 1012.4 hPa WSW 4.8 km/h 4.8 km/h 90% 0 mm
22:55 25.7 °C 23.9 °C 1012.4 hPa SW 6.4 km/h 8 km/h 90% 0 mm
23:00 25.7 °C 23.9 °C 1012.4 hPa SW 3.2 km/h 6.4 km/h 90% 0 mm
23:05 25.6 °C 23.8 °C 1012.4 hPa SW 3.2 km/h 6.4 km/h 90% 0 mm
23:10 25.6 °C 23.8 °C 1012.4 hPa SW 3.2 km/h 4.8 km/h 90% 0 mm
23:15 25.6 °C 23.8 °C 1012.4 hPa SSW 1.6 km/h 6.4 km/h 90% 0 mm
23:20 25.5 °C 23.9 °C 1012.4 hPa SW 1.6 km/h 3.2 km/h 91% 0 mm
23:25 25.4 °C 23.9 °C 1012.8 hPa SSW 1.6 km/h 1.6 km/h 91% 0 mm
23:30 25.4 °C 23.9 °C 1012.4 hPa SSW 4.8 km/h 4.8 km/h 91% 0 mm
23:35 25.4 °C 23.8 °C 1012.4 hPa Calm   4.8 km/h 91% 0 mm
23:40 25.4 °C 23.8 °C 1012.4 hPa WSW 1.6 km/h 4.8 km/h 91% 0 mm
23:45 25.3 °C 23.8 °C 1012.4 hPa Calm   3.2 km/h 91% 0 mm
23:50 25.3 °C 23.8 °C 1012.4 hPa Calm   1.6 km/h 91% 0 mm
23:55 25.2 °C 23.7 °C 1012.4 hPa SSW 3.2 km/h 3.2 km/h 91% 0 mm
Compliments of Weather Underground